createdAt,value
2019-05-03T00:01:03.748Z,0.40
2019-05-03T00:04:04.416Z,0.30
2019-05-03T00:06:58.128Z,0.40
2019-05-03T00:09:59.514Z,0.40
2019-05-03T00:12:53.710Z,0.30
2019-05-03T00:16:12.223Z,0.40
2019-05-03T00:19:19.083Z,0.37
2019-05-03T00:22:21.912Z,0.50
2019-05-03T00:25:16.017Z,0.57
2019-05-03T00:28:17.727Z,0.47
2019-05-03T00:31:12.495Z,0.40
2019-05-03T00:34:21.861Z,0.53
2019-05-03T00:37:24.216Z,0.40
2019-05-03T00:40:35.682Z,0.40
2019-05-03T00:43:31.775Z,0.57
2019-05-03T00:46:34.796Z,0.33
2019-05-03T00:49:32.117Z,0.37
2019-05-03T00:52:33.106Z,0.53
2019-05-03T00:55:26.736Z,0.50
2019-05-03T00:58:28.215Z,0.20
2019-05-03T01:01:22.628Z,0.50
2019-05-03T01:04:24.170Z,0.30
2019-05-03T01:07:18.936Z,0.47
2019-05-03T01:10:23.286Z,0.40
2019-05-03T01:13:21.971Z,0.40
2019-05-03T01:16:25.119Z,0.30
2019-05-03T01:19:32.182Z,0.40
2019-05-03T01:22:32.860Z,0.43
2019-05-03T01:25:32.132Z,0.30
2019-05-03T01:28:32.348Z,0.37
2019-05-03T01:31:26.150Z,0.50
2019-05-03T01:34:27.385Z,0.50
2019-05-03T01:37:22.636Z,0.30
2019-05-03T01:40:24.414Z,0.23
2019-05-03T01:43:18.716Z,0.50
2019-05-03T01:46:23.143Z,0.30
2019-05-03T01:49:18.130Z,0.20
2019-05-03T01:56:00.262Z,0.60
2019-05-03T01:58:54.094Z,0.50
2019-05-03T02:02:07.351Z,0.40
2019-05-03T02:05:02.559Z,0.30
2019-05-03T02:08:03.388Z,0.20
2019-05-03T02:10:57.761Z,0.30
2019-05-03T02:13:59.195Z,0.20
2019-05-03T02:16:52.415Z,0.20
2019-05-03T02:19:54.135Z,0.30
2019-05-03T02:22:47.807Z,0.20
2019-05-03T02:25:56.130Z,0.20
2019-05-03T02:28:43.734Z,0.30
2019-05-03T02:31:44.767Z,0.30
2019-05-03T02:34:38.701Z,0.30
2019-05-03T02:37:33.589Z,0.20
2019-05-03T02:40:27.672Z,0.20
2019-05-03T02:43:36.086Z,0.40
2019-05-03T02:46:36.178Z,0.20
2019-05-03T02:49:39.688Z,0.30
2019-05-03T02:52:36.870Z,0.10
2019-05-03T02:55:37.532Z,0.20
2019-05-03T02:58:32.183Z,0.30
2019-05-03T03:01:28.641Z,0.27
2019-05-03T03:04:22.159Z,0.20
2019-05-03T03:07:25.649Z,0.17
2019-05-03T03:10:26.477Z,0.20
2019-05-03T03:13:25.222Z,0.27
2019-05-03T03:16:10.010Z,0.23
2019-05-03T03:19:11.440Z,0.20
2019-05-03T03:22:16.184Z,0.40
2019-05-03T03:25:18.668Z,0.20
2019-05-03T03:28:15.694Z,0.30
2019-05-03T03:31:19.825Z,0.27
2019-05-03T03:34:18.351Z,0.23
2019-05-03T03:37:16.998Z,0.00
2019-05-03T03:40:13.059Z,0.17
2019-05-03T03:43:15.694Z,0.13
2019-05-03T03:46:09.261Z,0.20
2019-05-03T03:49:10.439Z,0.40
2019-05-03T03:52:06.343Z,0.20
2019-05-03T03:55:07.898Z,0.23
2019-05-03T03:58:02.011Z,0.30
2019-05-03T04:01:05.574Z,0.23
2019-05-03T04:03:59.378Z,0.30
2019-05-03T04:07:01.388Z,0.20
2019-05-03T04:09:56.287Z,0.30
2019-05-03T04:12:57.811Z,0.13
2019-05-03T04:15:55.952Z,0.27
2019-05-03T04:18:56.709Z,0.30
2019-05-03T04:21:50.237Z,0.20
2019-05-03T04:24:57.074Z,0.20
2019-05-03T04:27:51.777Z,0.40
2019-05-03T04:30:55.199Z,0.40
2019-05-03T04:33:56.297Z,0.47
2019-05-03T04:36:50.370Z,0.20
2019-05-03T04:39:45.793Z,0.30
2019-05-03T04:42:47.449Z,0.17
2019-05-03T04:45:41.604Z,0.27
2019-05-03T04:48:44.835Z,0.43
2019-05-03T04:51:46.571Z,0.40
2019-05-03T04:54:41.899Z,0.40
2019-05-03T04:57:42.137Z,0.27
2019-05-03T05:00:38.409Z,0.20
2019-05-03T05:03:46.275Z,0.40
2019-05-03T05:06:47.366Z,0.40
2019-05-03T05:09:41.841Z,0.37
2019-05-03T05:12:42.636Z,0.30
2019-05-03T05:15:51.727Z,0.53
2019-05-03T05:18:55.985Z,0.40
2019-05-03T05:21:51.382Z,0.27
2019-05-03T05:24:55.197Z,0.17
2019-05-03T05:28:07.028Z,0.20
2019-05-03T05:31:08.205Z,0.30
2019-05-03T05:34:02.122Z,0.50
2019-05-03T05:37:05.380Z,0.20
2019-05-03T05:39:58.860Z,0.40
2019-05-03T05:42:59.801Z,0.30
2019-05-03T05:45:55.350Z,0.20
2019-05-03T05:48:57.941Z,0.27
2019-05-03T05:51:52.337Z,0.30
2019-05-03T05:54:55.246Z,0.23
2019-05-03T05:58:01.978Z,0.50
2019-05-03T06:00:55.730Z,0.30
2019-05-03T06:03:51.650Z,0.20
2019-05-03T06:06:56.887Z,0.10
2019-05-03T06:10:00.538Z,0.40
2019-05-03T06:13:07.935Z,0.30
2019-05-03T06:16:10.884Z,0.30
2019-05-03T06:19:07.013Z,0.30
2019-05-03T06:22:08.259Z,0.20
2019-05-03T06:25:26.758Z,0.10
2019-05-03T06:28:22.528Z,0.20
2019-05-03T06:31:28.151Z,0.10
2019-05-03T06:34:35.509Z,0.10
2019-05-03T06:37:46.111Z,0.20
2019-05-03T06:40:42.021Z,0.20
2019-05-03T06:43:44.998Z,0.10
2019-05-03T06:46:52.365Z,0.30
2019-05-03T06:49:55.099Z,0.27
2019-05-03T06:52:48.397Z,0.00
2019-05-03T06:55:49.189Z,0.13
2019-05-03T06:58:52.155Z,0.10
2019-05-03T07:02:06.249Z,0.33
2019-05-03T07:05:01.214Z,0.30
2019-05-03T07:08:05.035Z,0.27
2019-05-03T07:11:00.038Z,0.20
2019-05-03T07:14:00.495Z,0.27
2019-05-03T07:17:01.265Z,0.10
2019-05-03T07:19:56.071Z,0.20
2019-05-03T07:22:50.025Z,0.30
2019-05-03T07:25:51.363Z,0.10
2019-05-03T07:28:49.269Z,0.20
2019-05-03T07:31:47.660Z,0.13
2019-05-03T07:34:55.677Z,0.20
2019-05-03T07:37:56.687Z,0.23
2019-05-03T07:40:50.513Z,0.20
2019-05-03T07:43:52.222Z,0.10
2019-05-03T07:46:46.247Z,0.00
2019-05-03T07:49:48.847Z,0.07
2019-05-03T07:52:45.136Z,0.20
2019-05-03T07:59:02.800Z,0.40
2019-05-03T08:01:58.193Z,0.20
2019-05-03T08:04:54.568Z,0.40
2019-05-03T08:07:57.445Z,0.60
2019-05-03T08:10:52.409Z,0.10
2019-05-03T08:13:54.980Z,0.30
2019-05-03T08:16:49.967Z,0.23
2019-05-03T08:19:50.933Z,0.30
2019-05-03T08:22:44.906Z,0.10
2019-05-03T08:25:46.842Z,0.13
2019-05-03T08:28:44.467Z,0.23
2019-05-03T08:31:49.303Z,0.50
2019-05-03T08:34:45.316Z,0.40
2019-05-03T08:37:49.613Z,0.20
2019-05-03T08:40:45.534Z,0.37
2019-05-03T08:43:47.218Z,0.30
2019-05-03T08:46:41.260Z,0.20
2019-05-03T08:49:42.440Z,0.10
2019-05-03T08:52:37.195Z,0.30
2019-05-03T08:55:42.097Z,0.20
2019-05-03T08:58:36.710Z,0.20
2019-05-03T09:01:39.510Z,0.27
2019-05-03T09:04:37.870Z,0.40
2019-05-03T09:07:36.759Z,0.20
2019-05-03T09:10:47.066Z,0.10
2019-05-03T09:13:55.712Z,0.20
2019-05-03T09:16:50.520Z,0.30
2019-05-03T09:19:51.886Z,0.20
2019-05-03T09:22:46.303Z,0.23
2019-05-03T09:25:48.266Z,0.10
2019-05-03T09:28:45.233Z,0.30
2019-05-03T09:31:45.304Z,0.20
2019-05-03T09:34:38.808Z,0.20
2019-05-03T09:37:39.994Z,0.20
2019-05-03T09:40:45.540Z,0.30
2019-05-03T09:43:49.329Z,0.10
2019-05-03T09:46:44.643Z,0.33
2019-05-03T09:49:45.947Z,0.30
2019-05-03T09:52:40.053Z,0.40
2019-05-03T09:55:41.727Z,0.23
2019-05-03T09:58:38.239Z,0.50
2019-05-03T10:01:39.494Z,0.50
2019-05-03T10:04:36.399Z,0.40
2019-05-03T10:07:36.759Z,0.40
2019-05-03T10:10:31.818Z,0.40
2019-05-03T10:13:35.215Z,0.60
2019-05-03T10:16:29.978Z,0.50
2019-05-03T10:19:37.607Z,0.37
2019-05-03T10:22:34.914Z,0.30
2019-05-03T10:25:29.376Z,0.40
2019-05-03T10:28:25.097Z,0.50
2019-05-03T10:31:27.684Z,0.53
2019-05-03T10:34:22.408Z,0.67
2019-05-03T10:37:37.248Z,0.50
2019-05-03T10:40:45.249Z,1.00
2019-05-03T10:43:46.788Z,0.80
2019-05-03T10:46:40.836Z,0.50
2019-05-03T10:49:42.255Z,0.40
2019-05-03T10:52:38.393Z,0.80
2019-05-03T10:55:41.167Z,0.70
2019-05-03T10:58:35.672Z,0.57
2019-05-03T11:01:54.903Z,0.60
2019-05-03T11:04:49.548Z,0.70
2019-05-03T11:07:50.493Z,0.53
2019-05-03T11:10:45.628Z,0.70
2019-05-03T11:13:57.669Z,0.50
2019-05-03T11:16:51.950Z,0.37
2019-05-03T11:19:55.298Z,0.50
2019-05-03T11:22:55.809Z,0.40
2019-05-03T11:25:50.510Z,0.37
2019-05-03T11:28:44.951Z,0.70
2019-05-03T11:31:55.084Z,0.57
2019-05-03T11:34:59.963Z,0.37
2019-05-03T11:37:56.238Z,0.60
2019-05-03T11:40:50.348Z,0.70
2019-05-03T11:43:50.717Z,0.50
2019-05-03T11:46:57.619Z,0.20
2019-05-03T11:49:58.965Z,0.50
2019-05-03T11:52:55.405Z,0.50
2019-05-03T11:55:55.835Z,0.60
2019-05-03T11:58:50.439Z,0.30
2019-05-03T12:01:59.157Z,0.30
2019-05-03T12:04:55.380Z,0.30
2019-05-03T12:07:57.210Z,0.30
2019-05-03T12:10:57.865Z,0.50
2019-05-03T12:14:02.369Z,0.37
2019-05-03T12:17:17.900Z,0.23
2019-05-03T12:20:07.982Z,0.50
2019-05-03T12:23:07.862Z,0.50
2019-05-03T12:26:06.535Z,0.30
2019-05-03T12:28:58.946Z,0.50
2019-05-03T12:31:59.295Z,0.40
2019-05-03T12:34:55.103Z,0.33
2019-05-03T12:37:55.706Z,0.33
2019-05-03T12:40:56.663Z,0.20
2019-05-03T12:43:51.081Z,0.10
2019-05-03T12:46:45.165Z,0.27
2019-05-03T12:49:47.498Z,0.30
2019-05-03T12:52:49.854Z,0.30
2019-05-03T12:55:44.021Z,0.20
2019-05-03T12:58:59.041Z,0.50
2019-05-03T13:02:17.943Z,0.20
2019-05-03T13:05:12.635Z,0.43
2019-05-03T13:08:35.237Z,0.33
2019-05-03T13:11:29.707Z,0.40
2019-05-03T13:14:30.778Z,0.40
2019-05-03T13:17:37.356Z,0.30
2019-05-03T13:20:38.969Z,0.30
2019-05-03T13:23:40.598Z,0.30
2019-05-03T13:26:35.265Z,0.20
2019-05-03T13:29:29.035Z,0.20
2019-05-03T13:32:29.050Z,0.27
2019-05-03T13:35:36.195Z,0.27
2019-05-03T13:38:37.207Z,0.30
2019-05-03T13:41:31.279Z,0.23
2019-05-03T13:44:32.354Z,0.20
2019-05-03T13:47:25.978Z,0.10
2019-05-03T13:50:26.683Z,0.10
2019-05-03T13:53:21.271Z,0.20
2019-05-03T13:56:24.687Z,0.20
2019-05-03T13:59:21.976Z,0.27
2019-05-03T14:02:21.385Z,0.27
2019-05-03T14:05:17.393Z,0.20
2019-05-03T14:08:19.084Z,0.10
2019-05-03T14:11:18.159Z,0.30
2019-05-03T14:14:21.401Z,0.23
2019-05-03T14:17:15.501Z,0.30
2019-05-03T14:20:26.077Z,0.30
2019-05-03T14:23:21.232Z,0.20
2019-05-03T14:26:24.603Z,0.40
2019-05-03T14:29:18.405Z,0.30
2019-05-03T14:32:25.873Z,0.30
2019-05-03T14:35:16.277Z,0.30
2019-05-03T14:38:17.627Z,0.30
2019-05-03T14:41:15.082Z,0.30
2019-05-03T14:44:18.036Z,0.20
2019-05-03T14:47:14.682Z,0.17
2019-05-03T14:50:16.060Z,0.20
2019-05-03T14:53:10.509Z,0.13
2019-05-03T14:56:14.954Z,0.30
2019-05-03T14:59:10.563Z,0.30
2019-05-03T15:02:15.632Z,0.20
2019-05-03T15:05:11.643Z,0.30
2019-05-03T15:08:15.071Z,0.20
2019-05-03T15:11:09.392Z,0.20
2019-05-03T15:14:11.158Z,0.20
2019-05-03T15:17:05.518Z,0.10
2019-05-03T15:20:08.895Z,0.20
2019-05-03T15:23:05.316Z,0.20
2019-05-03T15:29:08.895Z,0.10
2019-05-03T15:32:05.203Z,0.20
2019-05-03T15:35:15.188Z,0.27
2019-05-03T15:38:16.121Z,0.10
2019-05-03T15:41:10.953Z,0.40
2019-05-03T15:44:29.797Z,0.10
2019-05-03T15:47:25.493Z,0.30
2019-05-03T15:50:26.187Z,0.10
2019-05-03T15:53:20.283Z,0.27
2019-05-03T15:56:20.890Z,0.40
2019-05-03T15:59:15.019Z,0.30
2019-05-03T16:02:16.690Z,0.20
2019-05-03T16:05:11.305Z,0.30
2019-05-03T16:08:12.857Z,0.30
2019-05-03T16:11:07.010Z,0.20
2019-05-03T16:14:08.403Z,0.10
2019-05-03T16:16:56.073Z,0.30
2019-05-03T16:19:56.852Z,0.40
2019-05-03T16:22:46.673Z,0.20
2019-05-03T16:25:48.165Z,0.20
2019-05-03T16:28:55.730Z,0.40
2019-05-03T16:31:56.462Z,0.10
2019-05-03T16:34:50.969Z,0.20
2019-05-03T16:37:54.359Z,0.20
2019-05-03T16:40:47.773Z,0.40
2019-05-03T16:43:48.674Z,0.27
2019-05-03T16:46:42.169Z,0.10
2019-05-03T16:49:44.665Z,0.30
2019-05-03T16:52:38.780Z,0.17
2019-05-03T16:55:39.238Z,0.10
2019-05-03T16:58:35.218Z,0.10
2019-05-03T17:01:35.843Z,0.20
2019-05-03T17:04:34.708Z,0.20
2019-05-03T17:07:44.661Z,0.30
2019-05-03T17:10:42.891Z,0.10
2019-05-03T17:13:45.687Z,0.30
2019-05-03T17:16:41.922Z,0.30
2019-05-03T17:19:44.584Z,0.20
2019-05-03T17:22:38.487Z,0.20
2019-05-03T17:25:39.143Z,0.17
2019-05-03T17:28:32.674Z,0.40
2019-05-03T17:31:35.213Z,0.30
2019-05-03T17:34:36.523Z,0.20
2019-05-03T17:37:31.304Z,0.30
2019-05-03T17:40:39.490Z,0.37
2019-05-03T17:43:45.245Z,0.23
2019-05-03T17:46:40.402Z,0.40
2019-05-03T17:49:41.327Z,0.13
2019-05-03T17:52:56.279Z,0.20
2019-05-03T17:56:07.526Z,0.30
2019-05-03T17:59:09.446Z,0.30
2019-05-03T18:02:29.656Z,0.30
2019-05-03T18:05:42.132Z,0.40
2019-05-03T18:08:50.086Z,0.40
2019-05-03T18:11:45.986Z,0.20
2019-05-03T18:14:47.660Z,0.47
2019-05-03T18:17:40.998Z,0.37
2019-05-03T18:20:44.928Z,0.40
2019-05-03T18:23:38.204Z,0.40
2019-05-03T18:26:38.977Z,0.50
2019-05-03T18:29:34.426Z,0.60
2019-05-03T18:32:34.928Z,0.30
2019-05-03T18:35:35.618Z,0.40
2019-05-03T18:38:31.584Z,0.30
2019-05-03T18:41:25.616Z,0.30
2019-05-03T18:44:31.566Z,0.30
2019-05-03T18:47:32.060Z,0.27
2019-05-03T18:50:26.387Z,0.60
2019-05-03T18:53:19.948Z,0.30
2019-05-03T18:56:21.324Z,0.40
2019-05-03T18:59:15.308Z,0.40
2019-05-03T19:02:16.889Z,0.30
2019-05-03T19:05:24.314Z,0.50
2019-05-03T19:08:26.397Z,0.23
2019-05-03T19:11:27.691Z,0.33
2019-05-03T19:14:30.329Z,0.57
2019-05-03T19:17:39.361Z,0.47
2019-05-03T19:20:40.550Z,0.40
2019-05-03T19:23:36.026Z,0.50
2019-05-03T19:26:40.180Z,0.30
2019-05-03T19:29:34.329Z,0.47
2019-05-03T19:32:36.190Z,0.43
2019-05-03T19:35:30.044Z,0.50
2019-05-03T19:38:31.298Z,0.20
2019-05-03T19:41:26.106Z,0.20
2019-05-03T19:44:30.538Z,0.33
2019-05-03T19:47:25.181Z,0.43
2019-05-03T19:50:27.274Z,0.60
2019-05-03T19:53:23.029Z,0.53
2019-05-03T19:56:25.555Z,0.70
2019-05-03T19:59:30.215Z,0.40
2019-05-03T20:02:41.450Z,0.70
2019-05-03T20:05:55.777Z,0.60
2019-05-03T20:08:58.860Z,0.67
2019-05-03T20:11:55.122Z,0.43
2019-05-03T20:14:55.880Z,0.43
2019-05-03T20:17:59.138Z,0.70
2019-05-03T20:20:52.513Z,0.40
2019-05-03T20:23:47.073Z,0.30
2019-05-03T20:26:48.397Z,0.73
2019-05-03T20:29:43.807Z,0.57
2019-05-03T20:32:45.705Z,0.60
2019-05-03T20:35:39.987Z,0.63
2019-05-03T20:38:41.240Z,0.50
2019-05-03T20:41:35.319Z,0.80
2019-05-03T20:44:36.994Z,0.63
2019-05-03T20:47:32.307Z,0.67
2019-05-03T20:50:35.174Z,0.70
2019-05-03T20:53:29.149Z,0.50
2019-05-03T20:56:30.015Z,0.70
2019-05-03T20:59:25.218Z,0.67
2019-05-03T21:02:26.301Z,0.60
2019-05-03T21:05:29.730Z,0.40
2019-05-03T21:08:25.484Z,0.73
2019-05-03T21:11:20.151Z,0.60
2019-05-03T21:14:20.795Z,0.53
2019-05-03T21:17:51.079Z,0.80
2019-05-03T21:20:56.379Z,0.73
2019-05-03T21:23:52.197Z,0.70
2019-05-03T21:26:54.700Z,0.50
2019-05-03T21:29:54.829Z,0.43
2019-05-03T21:32:55.424Z,0.40
2019-05-03T21:35:49.739Z,0.90
2019-05-03T21:38:51.189Z,0.87
2019-05-03T21:41:45.093Z,0.60
2019-05-03T21:44:46.311Z,0.63
2019-05-03T21:47:50.313Z,0.60
2019-05-03T21:50:51.007Z,0.80
2019-05-03T21:53:45.265Z,0.80
2019-05-03T21:56:47.027Z,0.67
2019-05-03T21:59:40.887Z,0.50
2019-05-03T22:02:42.329Z,0.67
2019-05-03T22:05:36.014Z,0.43
2019-05-03T22:08:37.442Z,0.70
2019-05-03T22:11:31.153Z,0.80
2019-05-03T22:14:36.723Z,0.60
2019-05-03T22:17:48.814Z,0.60
2019-05-03T22:20:54.885Z,0.50
2019-05-03T22:24:04.486Z,0.50
2019-05-03T22:27:12.573Z,0.67
2019-05-03T22:30:06.926Z,0.80
2019-05-03T22:33:08.247Z,0.60
2019-05-03T22:36:08.612Z,0.60
2019-05-03T22:39:04.952Z,0.80
2019-05-03T22:42:04.394Z,0.50
2019-05-03T22:45:06.777Z,0.60
2019-05-03T22:48:02.289Z,0.60
2019-05-03T22:51:04.816Z,0.70
2019-05-03T22:53:58.316Z,0.60
2019-05-03T22:57:00.283Z,0.53
2019-05-03T22:59:54.673Z,0.67
2019-05-03T23:02:55.433Z,0.50
2019-05-03T23:05:50.927Z,0.60
2019-05-03T23:08:55.945Z,0.77
2019-05-03T23:11:51.394Z,0.70
2019-05-03T23:14:54.992Z,0.80
2019-05-03T23:17:48.379Z,0.60
2019-05-03T23:20:50.809Z,0.70
2019-05-03T23:23:48.487Z,0.80
2019-05-03T23:26:49.710Z,0.60
2019-05-03T23:29:45.409Z,0.60
2019-05-03T23:32:46.529Z,0.60
2019-05-03T23:35:40.706Z,0.60
2019-05-03T23:38:41.486Z,0.50
2019-05-03T23:41:41.921Z,0.80
2019-05-03T23:44:36.360Z,0.67
2019-05-03T23:47:45.785Z,0.60
2019-05-03T23:50:46.362Z,0.73
2019-05-03T23:53:40.813Z,0.57
2019-05-03T23:56:45.644Z,0.60
2019-05-03T23:59:39.350Z,0.80
